Terminal Aerodrome Forecast
Issued by NWS

Home | Current Version | Previous Version | Text Only | Print | Product List | Glossary On
Versions: 1 2 3 4 5 6 7 8 9 10 11 12 13 14 15 16 17
521
FTUS42 KTBW 271355 AAA
TAFLAL
TAF AMD
KLAL 271355Z 2714/2812 12013G18KT 6SM SHRA BR BKN015 OVC040
      TEMPO 2714/2716 6SM SHRA OVC008
     FM271700 13015G20KT P6SM VCSH BKN030
     FM271800 15017G24KT P6SM VCSH BKN040 OVC080
     FM280000 17013G18KT P6SM VCSH BKN040
     FM280600 16012G17KT P6SM VCSH BKN050 OVC100
     FM280800 16010G15KT P6SM BKN050=

USA.gov is the U.S. government's official web portal to all federal, state and local government web resources and services.